sensor_id;sensor_type;location;lat;lon;timestamp;temperature;humidity
22908;DHT22;11620;50.050;8.690;2023-07-29T00:01:57;16.80;99.90
22908;DHT22;11620;50.050;8.690;2023-07-29T00:04:43;16.70;99.90
22908;DHT22;11620;50.050;8.690;2023-07-29T00:07:30;16.80;99.90
22908;DHT22;11620;50.050;8.690;2023-07-29T00:10:16;16.90;99.90
22908;DHT22;11620;50.050;8.690;2023-07-29T00:13:03;16.80;99.90
22908;DHT22;11620;50.050;8.690;2023-07-29T00:15:50;16.90;99.90
22908;DHT22;11620;50.050;8.690;2023-07-29T00:18:36;16.90;99.90
22908;DHT22;11620;50.050;8.690;2023-07-29T00:21:22;16.90;99.90
22908;DHT22;11620;50.050;8.690;2023-07-29T00:24:09;17.00;99.90
22908;DHT22;11620;50.050;8.690;2023-07-29T00:26:55;16.90;99.90
22908;DHT22;11620;50.050;8.690;2023-07-29T00:29:41;17.00;99.90
22908;DHT22;11620;50.050;8.690;2023-07-29T00:32:29;17.10;99.90
22908;DHT22;11620;50.050;8.690;2023-07-29T00:35:15;17.10;99.90
22908;DHT22;11620;50.050;8.690;2023-07-29T00:38:02;17.20;99.90
22908;DHT22;11620;50.050;8.690;2023-07-29T00:40:48;17.20;99.90
22908;DHT22;11620;50.050;8.690;2023-07-29T00:43:34;17.20;99.90
22908;DHT22;11620;50.050;8.690;2023-07-29T00:46:22;17.10;99.90
22908;DHT22;11620;50.050;8.690;2023-07-29T00:49:09;17.10;99.90
22908;DHT22;11620;50.050;8.690;2023-07-29T00:51:55;17.10;99.90
22908;DHT22;11620;50.050;8.690;2023-07-29T00:54:42;17.10;99.90
22908;DHT22;11620;50.050;8.690;2023-07-29T00:57:29;17.20;99.90
22908;DHT22;11620;50.050;8.690;2023-07-29T01:00:16;17.20;99.90
22908;DHT22;11620;50.050;8.690;2023-07-29T01:03:02;17.20;99.90
22908;DHT22;11620;50.050;8.690;2023-07-29T01:06:38;17.10;99.90
22908;DHT22;11620;50.050;8.690;2023-07-29T01:09:03;17.10;99.90
22908;DHT22;11620;50.050;8.690;2023-07-29T01:15:09;17.10;99.90
22908;DHT22;11620;50.050;8.690;2023-07-29T01:18:04;17.10;99.90
22908;DHT22;11620;50.050;8.690;2023-07-29T01:20:53;17.10;99.90
22908;DHT22;11620;50.050;8.690;2023-07-29T01:23:40;17.10;99.90
22908;DHT22;11620;50.050;8.690;2023-07-29T01:26:26;17.20;99.90
22908;DHT22;11620;50.050;8.690;2023-07-29T01:29:15;17.20;99.90
22908;DHT22;11620;50.050;8.690;2023-07-29T01:32:19;17.30;99.90
22908;DHT22;11620;50.050;8.690;2023-07-29T01:37:56;17.40;99.90
22908;DHT22;11620;50.050;8.690;2023-07-29T01:40:45;17.50;99.90
22908;DHT22;11620;50.050;8.690;2023-07-29T01:43:33;17.50;99.90
22908;DHT22;11620;50.050;8.690;2023-07-29T01:46:20;17.50;99.90
22908;DHT22;11620;50.050;8.690;2023-07-29T01:49:06;17.60;99.90
22908;DHT22;11620;50.050;8.690;2023-07-29T01:51:52;17.60;99.90
22908;DHT22;11620;50.050;8.690;2023-07-29T01:54:39;17.60;99.90
22908;DHT22;11620;50.050;8.690;2023-07-29T01:57:25;17.60;99.90
22908;DHT22;11620;50.050;8.690;2023-07-29T02:00:11;17.60;99.90
22908;DHT22;11620;50.050;8.690;2023-07-29T02:02:58;17.60;99.90
22908;DHT22;11620;50.050;8.690;2023-07-29T02:05:44;17.60;99.90
22908;DHT22;11620;50.050;8.690;2023-07-29T02:08:30;17.60;99.90
22908;DHT22;11620;50.050;8.690;2023-07-29T02:11:17;17.60;99.90
22908;DHT22;11620;50.050;8.690;2023-07-29T02:14:06;17.70;99.90
22908;DHT22;11620;50.050;8.690;2023-07-29T02:16:52;17.70;99.90
22908;DHT22;11620;50.050;8.690;2023-07-29T02:19:38;17.70;99.90
22908;DHT22;11620;50.050;8.690;2023-07-29T02:22:25;17.70;99.90
22908;DHT22;11620;50.050;8.690;2023-07-29T02:25:11;17.70;99.90
22908;DHT22;11620;50.050;8.690;2023-07-29T02:27:58;17.70;99.90
22908;DHT22;11620;50.050;8.690;2023-07-29T02:30:44;17.70;99.90
22908;DHT22;11620;50.050;8.690;2023-07-29T02:33:31;17.70;99.90
22908;DHT22;11620;50.050;8.690;2023-07-29T02:36:17;17.70;99.90
22908;DHT22;11620;50.050;8.690;2023-07-29T02:39:04;17.70;99.90
22908;DHT22;11620;50.050;8.690;2023-07-29T02:41:50;17.80;99.90
22908;DHT22;11620;50.050;8.690;2023-07-29T02:44:36;17.70;99.90
22908;DHT22;11620;50.050;8.690;2023-07-29T02:47:23;17.70;99.90
22908;DHT22;11620;50.050;8.690;2023-07-29T02:50:09;17.70;99.90
22908;DHT22;11620;50.050;8.690;2023-07-29T02:52:55;17.80;99.90
22908;DHT22;11620;50.050;8.690;2023-07-29T02:55:42;17.70;99.90
22908;DHT22;11620;50.050;8.690;2023-07-29T02:58:28;17.60;99.90
22908;DHT22;11620;50.050;8.690;2023-07-29T03:01:15;17.40;99.90
22908;DHT22;11620;50.050;8.690;2023-07-29T03:04:01;17.10;99.90
22908;DHT22;11620;50.050;8.690;2023-07-29T03:06:48;17.00;99.90
22908;DHT22;11620;50.050;8.690;2023-07-29T03:09:34;16.90;99.90
22908;DHT22;11620;50.050;8.690;2023-07-29T03:12:20;16.80;99.90
22908;DHT22;11620;50.050;8.690;2023-07-29T03:15:08;16.80;99.90
22908;DHT22;11620;50.050;8.690;2023-07-29T03:17:54;16.80;99.90
22908;DHT22;11620;50.050;8.690;2023-07-29T03:20:41;16.70;99.90
22908;DHT22;11620;50.050;8.690;2023-07-29T03:23:28;16.60;99.90
22908;DHT22;11620;50.050;8.690;2023-07-29T03:26:14;16.60;99.90
22908;DHT22;11620;50.050;8.690;2023-07-29T03:29:01;16.60;99.90
22908;DHT22;11620;50.050;8.690;2023-07-29T03:31:47;16.70;99.90
22908;DHT22;11620;50.050;8.690;2023-07-29T03:34:34;16.60;99.90
22908;DHT22;11620;50.050;8.690;2023-07-29T03:37:20;16.60;99.90
22908;DHT22;11620;50.050;8.690;2023-07-29T03:40:07;16.50;99.90
22908;DHT22;11620;50.050;8.690;2023-07-29T03:42:55;16.40;99.90
22908;DHT22;11620;50.050;8.690;2023-07-29T03:45:41;16.30;99.90
22908;DHT22;11620;50.050;8.690;2023-07-29T03:48:27;16.30;99.90
22908;DHT22;11620;50.050;8.690;2023-07-29T03:51:14;16.20;99.90
22908;DHT22;11620;50.050;8.690;2023-07-29T03:54:00;16.30;99.90
22908;DHT22;11620;50.050;8.690;2023-07-29T03:56:47;16.40;99.90
22908;DHT22;11620;50.050;8.690;2023-07-29T03:59:33;16.40;99.90
22908;DHT22;11620;50.050;8.690;2023-07-29T04:02:19;16.60;99.90
22908;DHT22;11620;50.050;8.690;2023-07-29T04:05:06;16.50;99.90
22908;DHT22;11620;50.050;8.690;2023-07-29T04:07:54;16.50;99.90
22908;DHT22;11620;50.050;8.690;2023-07-29T04:10:40;16.60;99.90
22908;DHT22;11620;50.050;8.690;2023-07-29T04:13:27;16.50;99.90
22908;DHT22;11620;50.050;8.690;2023-07-29T04:16:13;16.60;99.90
22908;DHT22;11620;50.050;8.690;2023-07-29T04:18:59;16.50;99.90
22908;DHT22;11620;50.050;8.690;2023-07-29T04:21:45;16.50;99.90
22908;DHT22;11620;50.050;8.690;2023-07-29T04:24:32;16.50;99.90
22908;DHT22;11620;50.050;8.690;2023-07-29T04:27:18;16.30;99.90
22908;DHT22;11620;50.050;8.690;2023-07-29T04:30:05;16.40;99.90
22908;DHT22;11620;50.050;8.690;2023-07-29T04:32:51;16.40;99.90
22908;DHT22;11620;50.050;8.690;2023-07-29T04:35:38;16.40;99.90
22908;DHT22;11620;50.050;8.690;2023-07-29T04:38:30;16.40;99.90
22908;DHT22;11620;50.050;8.690;2023-07-29T04:41:17;16.40;99.90
22908;DHT22;11620;50.050;8.690;2023-07-29T04:44:03;16.20;99.90
22908;DHT22;11620;50.050;8.690;2023-07-29T04:46:50;16.30;99.90
22908;DHT22;11620;50.050;8.690;2023-07-29T04:49:36;16.30;99.90
22908;DHT22;11620;50.050;8.690;2023-07-29T04:52:22;16.40;99.90
22908;DHT22;11620;50.050;8.690;2023-07-29T04:55:09;16.50;99.90
22908;DHT22;11620;50.050;8.690;2023-07-29T04:57:55;16.50;99.90
22908;DHT22;11620;50.050;8.690;2023-07-29T05:00:41;16.50;99.90
22908;DHT22;11620;50.050;8.690;2023-07-29T05:03:28;16.60;99.90
22908;DHT22;11620;50.050;8.690;2023-07-29T05:06:14;16.70;99.90
22908;DHT22;11620;50.050;8.690;2023-07-29T05:09:15;16.70;99.90
22908;DHT22;11620;50.050;8.690;2023-07-29T05:12:02;16.70;99.90
22908;DHT22;11620;50.050;8.690;2023-07-29T05:14:49;16.90;99.90
22908;DHT22;11620;50.050;8.690;2023-07-29T05:17:35;17.00;99.90
22908;DHT22;11620;50.050;8.690;2023-07-29T05:20:21;16.90;99.90
22908;DHT22;11620;50.050;8.690;2023-07-29T05:23:08;16.90;99.90
22908;DHT22;11620;50.050;8.690;2023-07-29T05:25:54;16.90;99.90
22908;DHT22;11620;50.050;8.690;2023-07-29T05:28:40;16.60;99.90
22908;DHT22;11620;50.050;8.690;2023-07-29T05:31:27;16.80;99.90
22908;DHT22;11620;50.050;8.690;2023-07-29T05:34:14;16.80;99.90
22908;DHT22;11620;50.050;8.690;2023-07-29T05:37:00;16.80;99.90
22908;DHT22;11620;50.050;8.690;2023-07-29T05:39:46;16.70;99.90
22908;DHT22;11620;50.050;8.690;2023-07-29T05:42:33;16.80;99.90
22908;DHT22;11620;50.050;8.690;2023-07-29T05:45:20;16.70;99.90
22908;DHT22;11620;50.050;8.690;2023-07-29T05:48:06;16.70;99.90
22908;DHT22;11620;50.050;8.690;2023-07-29T05:50:52;16.70;99.90
22908;DHT22;11620;50.050;8.690;2023-07-29T05:53:38;16.70;99.90
22908;DHT22;11620;50.050;8.690;2023-07-29T05:56:25;16.60;99.90
22908;DHT22;11620;50.050;8.690;2023-07-29T05:59:11;16.70;99.90
22908;DHT22;11620;50.050;8.690;2023-07-29T06:01:57;16.70;99.90
22908;DHT22;11620;50.050;8.690;2023-07-29T06:04:44;16.70;99.90
22908;DHT22;11620;50.050;8.690;2023-07-29T06:07:30;16.80;99.90
22908;DHT22;11620;50.050;8.690;2023-07-29T06:10:18;16.90;99.90
22908;DHT22;11620;50.050;8.690;2023-07-29T06:13:04;17.00;99.90
22908;DHT22;11620;50.050;8.690;2023-07-29T06:15:51;17.00;99.90
22908;DHT22;11620;50.050;8.690;2023-07-29T06:18:37;17.00;99.90
22908;DHT22;11620;50.050;8.690;2023-07-29T06:21:23;16.80;99.90
22908;DHT22;11620;50.050;8.690;2023-07-29T06:24:10;16.80;99.90
22908;DHT22;11620;50.050;8.690;2023-07-29T06:26:56;16.90;99.90
22908;DHT22;11620;50.050;8.690;2023-07-29T06:29:42;16.90;99.90
22908;DHT22;11620;50.050;8.690;2023-07-29T06:32:29;16.70;99.90
22908;DHT22;11620;50.050;8.690;2023-07-29T06:35:15;16.70;99.90
22908;DHT22;11620;50.050;8.690;2023-07-29T06:38:01;16.90;99.90
22908;DHT22;11620;50.050;8.690;2023-07-29T06:40:48;16.90;99.90
22908;DHT22;11620;50.050;8.690;2023-07-29T06:43:35;16.90;99.90
22908;DHT22;11620;50.050;8.690;2023-07-29T06:46:21;16.80;99.90
22908;DHT22;11620;50.050;8.690;2023-07-29T06:49:07;16.90;99.90
22908;DHT22;11620;50.050;8.690;2023-07-29T06:51:53;16.80;99.90
22908;DHT22;11620;50.050;8.690;2023-07-29T06:54:40;16.90;99.90
22908;DHT22;11620;50.050;8.690;2023-07-29T06:57:26;17.00;99.90
22908;DHT22;11620;50.050;8.690;2023-07-29T07:00:13;17.10;99.90
22908;DHT22;11620;50.050;8.690;2023-07-29T07:02:59;17.00;99.90
22908;DHT22;11620;50.050;8.690;2023-07-29T07:05:46;17.00;99.90
22908;DHT22;11620;50.050;8.690;2023-07-29T07:08:32;17.00;99.90
22908;DHT22;11620;50.050;8.690;2023-07-29T07:11:19;17.10;99.90
22908;DHT22;11620;50.050;8.690;2023-07-29T07:14:05;17.10;99.90
22908;DHT22;11620;50.050;8.690;2023-07-29T07:16:51;17.20;99.90
22908;DHT22;11620;50.050;8.690;2023-07-29T07:19:38;17.20;99.90
22908;DHT22;11620;50.050;8.690;2023-07-29T07:22:24;17.10;99.90
22908;DHT22;11620;50.050;8.690;2023-07-29T07:25:10;17.10;99.90
22908;DHT22;11620;50.050;8.690;2023-07-29T07:27:57;17.00;99.90
22908;DHT22;11620;50.050;8.690;2023-07-29T07:30:43;17.10;99.90
22908;DHT22;11620;50.050;8.690;2023-07-29T07:33:30;17.10;99.90
22908;DHT22;11620;50.050;8.690;2023-07-29T07:36:16;17.30;99.90
22908;DHT22;11620;50.050;8.690;2023-07-29T07:39:02;17.00;99.90
22908;DHT22;11620;50.050;8.690;2023-07-29T07:41:49;17.10;99.90
22908;DHT22;11620;50.050;8.690;2023-07-29T07:44:35;17.10;99.90
22908;DHT22;11620;50.050;8.690;2023-07-29T07:47:21;17.00;99.90
22908;DHT22;11620;50.050;8.690;2023-07-29T07:50:08;17.00;99.90
22908;DHT22;11620;50.050;8.690;2023-07-29T07:52:54;17.10;99.90
22908;DHT22;11620;50.050;8.690;2023-07-29T07:55:40;17.30;99.90
22908;DHT22;11620;50.050;8.690;2023-07-29T07:58:27;17.10;99.90
22908;DHT22;11620;50.050;8.690;2023-07-29T08:01:13;17.00;99.90
22908;DHT22;11620;50.050;8.690;2023-07-29T08:03:59;17.00;99.90
22908;DHT22;11620;50.050;8.690;2023-07-29T08:06:46;17.20;99.90
22908;DHT22;11620;50.050;8.690;2023-07-29T08:09:32;17.10;99.90
22908;DHT22;11620;50.050;8.690;2023-07-29T08:12:18;17.20;99.90
22908;DHT22;11620;50.050;8.690;2023-07-29T08:15:05;17.20;99.90
22908;DHT22;11620;50.050;8.690;2023-07-29T08:17:51;17.30;99.90
22908;DHT22;11620;50.050;8.690;2023-07-29T08:20:38;17.30;99.90
22908;DHT22;11620;50.050;8.690;2023-07-29T08:23:25;17.50;99.90
22908;DHT22;11620;50.050;8.690;2023-07-29T08:26:11;17.60;99.90
22908;DHT22;11620;50.050;8.690;2023-07-29T08:28:58;17.60;99.90
22908;DHT22;11620;50.050;8.690;2023-07-29T08:31:44;17.70;99.90
22908;DHT22;11620;50.050;8.690;2023-07-29T08:34:30;17.80;99.90
22908;DHT22;11620;50.050;8.690;2023-07-29T08:37:17;17.90;99.90
22908;DHT22;11620;50.050;8.690;2023-07-29T08:40:03;18.10;99.90
22908;DHT22;11620;50.050;8.690;2023-07-29T08:42:50;18.20;99.90
22908;DHT22;11620;50.050;8.690;2023-07-29T08:45:36;18.30;99.90
22908;DHT22;11620;50.050;8.690;2023-07-29T08:48:40;18.10;99.90
22908;DHT22;11620;50.050;8.690;2023-07-29T08:51:27;18.20;99.90
22908;DHT22;11620;50.050;8.690;2023-07-29T08:54:15;18.40;99.90
22908;DHT22;11620;50.050;8.690;2023-07-29T08:57:02;18.70;99.90
22908;DHT22;11620;50.050;8.690;2023-07-29T08:59:48;18.80;99.90
22908;DHT22;11620;50.050;8.690;2023-07-29T09:02:35;19.10;99.90
22908;DHT22;11620;50.050;8.690;2023-07-29T09:05:22;19.40;99.90
22908;DHT22;11620;50.050;8.690;2023-07-29T09:08:08;19.70;99.90
22908;DHT22;11620;50.050;8.690;2023-07-29T09:10:55;19.90;99.90
22908;DHT22;11620;50.050;8.690;2023-07-29T09:13:42;19.70;99.90
22908;DHT22;11620;50.050;8.690;2023-07-29T09:16:29;19.70;99.90
22908;DHT22;11620;50.050;8.690;2023-07-29T09:19:15;19.80;99.90
22908;DHT22;11620;50.050;8.690;2023-07-29T09:22:01;20.20;99.90
22908;DHT22;11620;50.050;8.690;2023-07-29T09:24:48;20.20;99.90
22908;DHT22;11620;50.050;8.690;2023-07-29T09:27:35;20.20;99.90
22908;DHT22;11620;50.050;8.690;2023-07-29T09:30:25;20.50;99.90
22908;DHT22;11620;50.050;8.690;2023-07-29T09:33:11;20.80;99.90
22908;DHT22;11620;50.050;8.690;2023-07-29T09:35:57;21.10;99.90
22908;DHT22;11620;50.050;8.690;2023-07-29T09:38:44;21.20;99.90
22908;DHT22;11620;50.050;8.690;2023-07-29T09:41:31;21.30;99.90
22908;DHT22;11620;50.050;8.690;2023-07-29T09:44:18;21.20;99.90
22908;DHT22;11620;50.050;8.690;2023-07-29T09:47:04;21.10;99.90
22908;DHT22;11620;50.050;8.690;2023-07-29T09:49:52;20.80;99.90
22908;DHT22;11620;50.050;8.690;2023-07-29T09:52:38;20.90;99.90
22908;DHT22;11620;50.050;8.690;2023-07-29T09:55:26;20.90;99.90
22908;DHT22;11620;50.050;8.690;2023-07-29T09:58:12;20.80;99.90
22908;DHT22;11620;50.050;8.690;2023-07-29T10:00:58;20.40;99.90
22908;DHT22;11620;50.050;8.690;2023-07-29T10:03:45;20.40;99.90
22908;DHT22;11620;50.050;8.690;2023-07-29T10:06:34;20.30;99.90
22908;DHT22;11620;50.050;8.690;2023-07-29T10:09:20;20.50;99.90
22908;DHT22;11620;50.050;8.690;2023-07-29T10:12:07;20.70;99.90
22908;DHT22;11620;50.050;8.690;2023-07-29T10:14:55;21.10;99.90
22908;DHT22;11620;50.050;8.690;2023-07-29T10:17:46;21.40;99.90
22908;DHT22;11620;50.050;8.690;2023-07-29T10:20:32;21.70;99.90
22908;DHT22;11620;50.050;8.690;2023-07-29T10:23:22;21.70;99.90
22908;DHT22;11620;50.050;8.690;2023-07-29T10:26:10;22.10;99.90
22908;DHT22;11620;50.050;8.690;2023-07-29T10:28:59;22.30;99.90
22908;DHT22;11620;50.050;8.690;2023-07-29T10:31:54;21.60;99.90
22908;DHT22;11620;50.050;8.690;2023-07-29T10:34:43;21.90;99.90
22908;DHT22;11620;50.050;8.690;2023-07-29T10:37:29;22.50;99.90
22908;DHT22;11620;50.050;8.690;2023-07-29T10:40:16;23.00;99.90
22908;DHT22;11620;50.050;8.690;2023-07-29T10:43:11;23.40;99.90
22908;DHT22;11620;50.050;8.690;2023-07-29T10:45:59;23.80;99.90
22908;DHT22;11620;50.050;8.690;2023-07-29T10:49:01;24.00;99.90
22908;DHT22;11620;50.050;8.690;2023-07-29T10:51:48;24.10;99.90
22908;DHT22;11620;50.050;8.690;2023-07-29T10:54:47;24.30;99.90
22908;DHT22;11620;50.050;8.690;2023-07-29T10:57:38;24.40;99.90
22908;DHT22;11620;50.050;8.690;2023-07-29T11:00:30;24.00;99.90
22908;DHT22;11620;50.050;8.690;2023-07-29T11:03:17;23.50;99.90
22908;DHT22;11620;50.050;8.690;2023-07-29T11:06:04;23.00;99.90
22908;DHT22;11620;50.050;8.690;2023-07-29T11:08:51;22.80;99.90
22908;DHT22;11620;50.050;8.690;2023-07-29T11:11:39;22.40;99.90
22908;DHT22;11620;50.050;8.690;2023-07-29T11:14:25;21.50;99.90
22908;DHT22;11620;50.050;8.690;2023-07-29T11:17:13;21.30;99.90
22908;DHT22;11620;50.050;8.690;2023-07-29T11:20:03;21.40;99.90
22908;DHT22;11620;50.050;8.690;2023-07-29T11:22:50;21.40;99.90
22908;DHT22;11620;50.050;8.690;2023-07-29T11:25:37;21.50;99.90
22908;DHT22;11620;50.050;8.690;2023-07-29T11:28:25;21.60;99.90
22908;DHT22;11620;50.050;8.690;2023-07-29T11:31:11;21.80;99.90
22908;DHT22;11620;50.050;8.690;2023-07-29T11:33:58;22.20;99.90
22908;DHT22;11620;50.050;8.690;2023-07-29T11:36:45;22.40;99.90
22908;DHT22;11620;50.050;8.690;2023-07-29T11:39:32;22.40;99.90
22908;DHT22;11620;50.050;8.690;2023-07-29T11:42:19;22.50;99.90
22908;DHT22;11620;50.050;8.690;2023-07-29T11:45:06;22.60;99.90
22908;DHT22;11620;50.050;8.690;2023-07-29T11:47:53;22.60;99.90
22908;DHT22;11620;50.050;8.690;2023-07-29T11:50:39;22.80;99.90
22908;DHT22;11620;50.050;8.690;2023-07-29T11:53:28;23.00;99.90
22908;DHT22;11620;50.050;8.690;2023-07-29T11:56:15;23.50;99.90
22908;DHT22;11620;50.050;8.690;2023-07-29T11:59:03;24.00;99.90
22908;DHT22;11620;50.050;8.690;2023-07-29T12:01:49;24.50;99.90
22908;DHT22;11620;50.050;8.690;2023-07-29T12:04:36;24.50;99.90
22908;DHT22;11620;50.050;8.690;2023-07-29T12:07:23;24.90;99.90
22908;DHT22;11620;50.050;8.690;2023-07-29T12:10:10;24.90;99.90
22908;DHT22;11620;50.050;8.690;2023-07-29T12:12:57;24.60;99.90
22908;DHT22;11620;50.050;8.690;2023-07-29T12:15:43;24.90;99.90
22908;DHT22;11620;50.050;8.690;2023-07-29T12:18:33;24.40;99.90
22908;DHT22;11620;50.050;8.690;2023-07-29T12:21:19;24.40;99.90
22908;DHT22;11620;50.050;8.690;2023-07-29T12:24:06;24.50;99.90
22908;DHT22;11620;50.050;8.690;2023-07-29T12:26:52;24.60;99.90
22908;DHT22;11620;50.050;8.690;2023-07-29T12:29:43;25.00;99.90
22908;DHT22;11620;50.050;8.690;2023-07-29T12:32:29;25.10;99.90
22908;DHT22;11620;50.050;8.690;2023-07-29T12:35:16;25.10;99.90
22908;DHT22;11620;50.050;8.690;2023-07-29T12:38:02;25.30;99.90
22908;DHT22;11620;50.050;8.690;2023-07-29T12:40:48;25.40;99.90
22908;DHT22;11620;50.050;8.690;2023-07-29T12:43:34;25.10;99.90
22908;DHT22;11620;50.050;8.690;2023-07-29T12:46:21;25.10;99.90
22908;DHT22;11620;50.050;8.690;2023-07-29T12:49:08;25.20;99.90
22908;DHT22;11620;50.050;8.690;2023-07-29T12:51:54;25.20;99.90
22908;DHT22;11620;50.050;8.690;2023-07-29T12:54:41;25.10;99.90
22908;DHT22;11620;50.050;8.690;2023-07-29T12:57:30;25.40;99.90
22908;DHT22;11620;50.050;8.690;2023-07-29T13:00:16;25.50;99.90
22908;DHT22;11620;50.050;8.690;2023-07-29T13:03:03;25.60;99.90
22908;DHT22;11620;50.050;8.690;2023-07-29T13:05:52;25.40;99.90
22908;DHT22;11620;50.050;8.690;2023-07-29T13:08:38;25.20;99.90
22908;DHT22;11620;50.050;8.690;2023-07-29T13:11:24;25.00;99.90
22908;DHT22;11620;50.050;8.690;2023-07-29T13:14:12;24.60;99.90
22908;DHT22;11620;50.050;8.690;2023-07-29T13:16:58;24.30;99.90
22908;DHT22;11620;50.050;8.690;2023-07-29T13:19:44;24.30;99.90
22908;DHT22;11620;50.050;8.690;2023-07-29T13:22:31;24.40;99.90
22908;DHT22;11620;50.050;8.690;2023-07-29T13:25:17;24.20;99.90
22908;DHT22;11620;50.050;8.690;2023-07-29T13:28:03;24.10;99.90
22908;DHT22;11620;50.050;8.690;2023-07-29T13:30:50;24.50;99.90
22908;DHT22;11620;50.050;8.690;2023-07-29T13:33:37;25.00;99.90
22908;DHT22;11620;50.050;8.690;2023-07-29T13:36:23;25.30;99.90
22908;DHT22;11620;50.050;8.690;2023-07-29T13:39:10;25.00;99.90
22908;DHT22;11620;50.050;8.690;2023-07-29T13:41:56;24.70;99.90
22908;DHT22;11620;50.050;8.690;2023-07-29T13:44:42;24.30;99.90
22908;DHT22;11620;50.050;8.690;2023-07-29T13:47:28;24.20;99.90
22908;DHT22;11620;50.050;8.690;2023-07-29T13:50:15;24.20;99.90
22908;DHT22;11620;50.050;8.690;2023-07-29T13:53:01;24.20;99.90
22908;DHT22;11620;50.050;8.690;2023-07-29T13:55:48;24.40;99.90
22908;DHT22;11620;50.050;8.690;2023-07-29T13:58:34;24.20;99.90
22908;DHT22;11620;50.050;8.690;2023-07-29T14:01:20;24.40;99.90
22908;DHT22;11620;50.050;8.690;2023-07-29T14:04:07;24.50;99.90
22908;DHT22;11620;50.050;8.690;2023-07-29T14:06:53;24.40;99.90
22908;DHT22;11620;50.050;8.690;2023-07-29T14:09:39;24.40;99.90
22908;DHT22;11620;50.050;8.690;2023-07-29T14:12:26;24.20;99.90
22908;DHT22;11620;50.050;8.690;2023-07-29T14:15:13;24.40;99.90
22908;DHT22;11620;50.050;8.690;2023-07-29T14:17:59;24.90;99.90
22908;DHT22;11620;50.050;8.690;2023-07-29T14:20:46;25.20;99.90
22908;DHT22;11620;50.050;8.690;2023-07-29T14:23:32;25.50;99.90
22908;DHT22;11620;50.050;8.690;2023-07-29T14:26:19;25.80;99.90
22908;DHT22;11620;50.050;8.690;2023-07-29T14:29:05;25.90;99.90
22908;DHT22;11620;50.050;8.690;2023-07-29T14:31:51;25.90;99.90
22908;DHT22;11620;50.050;8.690;2023-07-29T14:34:38;25.90;99.90
22908;DHT22;11620;50.050;8.690;2023-07-29T14:37:24;25.80;99.90
22908;DHT22;11620;50.050;8.690;2023-07-29T14:40:10;25.90;99.90
22908;DHT22;11620;50.050;8.690;2023-07-29T14:42:57;26.00;99.90
22908;DHT22;11620;50.050;8.690;2023-07-29T14:45:43;26.10;99.90
22908;DHT22;11620;50.050;8.690;2023-07-29T14:48:29;26.10;99.90
22908;DHT22;11620;50.050;8.690;2023-07-29T14:51:16;26.20;99.90
22908;DHT22;11620;50.050;8.690;2023-07-29T14:54:02;26.30;99.90
22908;DHT22;11620;50.050;8.690;2023-07-29T14:56:49;26.10;99.90
22908;DHT22;11620;50.050;8.690;2023-07-29T14:59:35;25.90;99.90
22908;DHT22;11620;50.050;8.690;2023-07-29T15:02:21;25.90;99.90
22908;DHT22;11620;50.050;8.690;2023-07-29T15:05:08;25.80;99.90
22908;DHT22;11620;50.050;8.690;2023-07-29T15:07:55;25.70;99.90
22908;DHT22;11620;50.050;8.690;2023-07-29T15:10:45;25.70;99.90
22908;DHT22;11620;50.050;8.690;2023-07-29T15:13:32;25.70;99.90
22908;DHT22;11620;50.050;8.690;2023-07-29T15:16:19;25.30;99.90
22908;DHT22;11620;50.050;8.690;2023-07-29T15:19:05;25.20;99.90
22908;DHT22;11620;50.050;8.690;2023-07-29T15:21:51;25.00;99.90
22908;DHT22;11620;50.050;8.690;2023-07-29T15:24:38;24.80;99.90
22908;DHT22;11620;50.050;8.690;2023-07-29T15:27:27;24.80;99.90
22908;DHT22;11620;50.050;8.690;2023-07-29T15:30:14;25.10;99.90
22908;DHT22;11620;50.050;8.690;2023-07-29T15:33:00;25.30;99.90
22908;DHT22;11620;50.050;8.690;2023-07-29T15:35:46;25.10;99.90
22908;DHT22;11620;50.050;8.690;2023-07-29T15:38:34;25.20;99.90
22908;DHT22;11620;50.050;8.690;2023-07-29T15:41:21;25.20;99.90
22908;DHT22;11620;50.050;8.690;2023-07-29T15:44:08;25.30;99.90
22908;DHT22;11620;50.050;8.690;2023-07-29T15:46:54;25.20;99.90
22908;DHT22;11620;50.050;8.690;2023-07-29T15:49:42;25.20;99.90
22908;DHT22;11620;50.050;8.690;2023-07-29T15:52:28;24.90;99.90
22908;DHT22;11620;50.050;8.690;2023-07-29T15:55:15;24.80;99.90
22908;DHT22;11620;50.050;8.690;2023-07-29T15:58:02;24.50;99.90
22908;DHT22;11620;50.050;8.690;2023-07-29T16:00:48;24.60;99.90
22908;DHT22;11620;50.050;8.690;2023-07-29T16:03:34;24.50;99.90
22908;DHT22;11620;50.050;8.690;2023-07-29T16:06:21;24.60;99.90
22908;DHT22;11620;50.050;8.690;2023-07-29T16:09:07;24.50;99.90
22908;DHT22;11620;50.050;8.690;2023-07-29T16:11:54;24.30;99.90
22908;DHT22;11620;50.050;8.690;2023-07-29T16:14:40;24.00;99.90
22908;DHT22;11620;50.050;8.690;2023-07-29T16:17:26;24.00;99.90
22908;DHT22;11620;50.050;8.690;2023-07-29T16:20:13;23.90;99.90
22908;DHT22;11620;50.050;8.690;2023-07-29T16:22:59;24.00;99.90
22908;DHT22;11620;50.050;8.690;2023-07-29T16:25:45;24.20;99.90
22908;DHT22;11620;50.050;8.690;2023-07-29T16:28:32;24.20;99.90
22908;DHT22;11620;50.050;8.690;2023-07-29T16:31:18;24.20;99.90
22908;DHT22;11620;50.050;8.690;2023-07-29T16:34:05;24.30;99.90
22908;DHT22;11620;50.050;8.690;2023-07-29T16:36:51;24.10;99.90
22908;DHT22;11620;50.050;8.690;2023-07-29T16:39:37;24.00;99.90
22908;DHT22;11620;50.050;8.690;2023-07-29T16:42:24;24.00;99.90
22908;DHT22;11620;50.050;8.690;2023-07-29T16:45:10;24.20;99.90
22908;DHT22;11620;50.050;8.690;2023-07-29T16:47:56;24.20;99.90
22908;DHT22;11620;50.050;8.690;2023-07-29T16:50:43;24.10;99.90
22908;DHT22;11620;50.050;8.690;2023-07-29T16:53:29;24.20;99.90
22908;DHT22;11620;50.050;8.690;2023-07-29T16:56:15;24.30;99.90
22908;DHT22;11620;50.050;8.690;2023-07-29T16:59:02;24.30;99.90
22908;DHT22;11620;50.050;8.690;2023-07-29T17:01:48;24.20;99.90
22908;DHT22;11620;50.050;8.690;2023-07-29T17:04:35;24.30;99.90
22908;DHT22;11620;50.050;8.690;2023-07-29T17:07:23;24.20;99.90
22908;DHT22;11620;50.050;8.690;2023-07-29T17:10:09;24.10;99.90
22908;DHT22;11620;50.050;8.690;2023-07-29T17:12:56;24.10;99.90
22908;DHT22;11620;50.050;8.690;2023-07-29T17:15:42;24.10;99.90
22908;DHT22;11620;50.050;8.690;2023-07-29T17:18:28;24.00;99.90
22908;DHT22;11620;50.050;8.690;2023-07-29T17:21:14;24.00;99.90
22908;DHT22;11620;50.050;8.690;2023-07-29T17:24:01;23.90;99.90
22908;DHT22;11620;50.050;8.690;2023-07-29T17:26:47;23.90;99.90
22908;DHT22;11620;50.050;8.690;2023-07-29T17:29:34;23.80;99.90
22908;DHT22;11620;50.050;8.690;2023-07-29T17:32:20;23.70;99.90
22908;DHT22;11620;50.050;8.690;2023-07-29T17:35:07;23.60;99.90
22908;DHT22;11620;50.050;8.690;2023-07-29T17:37:53;23.60;99.90
22908;DHT22;11620;50.050;8.690;2023-07-29T17:40:40;23.60;99.90